createdAt,value
2022-10-25T00:00:41.976Z,86.29
2022-10-25T00:02:04.391Z,86.24
2022-10-25T00:03:06.697Z,86.28
2022-10-25T00:04:12.032Z,86.37
2022-10-25T00:05:14.816Z,86.41
2022-10-25T00:06:17.508Z,86.49
2022-10-25T00:07:18.994Z,86.51
2022-10-25T00:08:21.477Z,86.34
2022-10-25T00:09:23.044Z,86.58
2022-10-25T00:10:25.883Z,86.56
2022-10-25T00:11:29.806Z,86.44
2022-10-25T00:12:32.331Z,86.44
2022-10-25T00:13:34.920Z,86.49
2022-10-25T00:14:37.823Z,86.58
2022-10-25T00:15:40.429Z,86.56
2022-10-25T00:16:41.968Z,86.43
2022-10-25T00:17:45.666Z,86.48
2022-10-25T00:18:47.616Z,86.64
2022-10-25T00:19:50.185Z,86.47
2022-10-25T00:20:52.049Z,86.66
2022-10-25T00:21:54.631Z,86.69
2022-10-25T00:22:56.908Z,86.69
2022-10-25T00:23:59.510Z,86.54
2022-10-25T00:25:01.044Z,86.70
2022-10-25T00:26:05.203Z,86.62
2022-10-25T00:27:06.785Z,86.51
2022-10-25T00:28:09.535Z,86.70
2022-10-25T00:29:11.882Z,86.60
2022-10-25T00:30:16.087Z,86.63
2022-10-25T00:31:17.940Z,86.73
2022-10-25T00:32:20.797Z,86.51
2022-10-25T00:33:22.312Z,86.59
2022-10-25T00:34:24.777Z,86.81
2022-10-25T00:35:26.325Z,86.54
2022-10-25T00:36:28.953Z,86.64
2022-10-25T00:37:30.657Z,86.40
2022-10-25T00:38:33.349Z,86.62
2022-10-25T00:39:35.937Z,86.62
2022-10-25T00:40:38.089Z,86.38
2022-10-25T00:41:41.363Z,86.55
2022-10-25T00:42:42.958Z,86.35
2022-10-25T00:43:47.741Z,86.36
2022-10-25T00:44:53.568Z,86.27
2022-10-25T00:45:57.846Z,86.50
2022-10-25T00:46:59.613Z,86.27
2022-10-25T00:48:05.487Z,86.46
2022-10-25T00:49:12.640Z,86.49
2022-10-25T00:50:21.564Z,86.41
2022-10-25T00:51:28.784Z,86.23
2022-10-25T00:52:35.686Z,86.70
2022-10-25T00:53:38.925Z,86.51
2022-10-25T00:54:46.032Z,86.66
2022-10-25T00:55:53.490Z,86.59
2022-10-25T00:56:59.333Z,86.73
2022-10-25T00:58:07.473Z,86.57
2022-10-25T00:59:12.293Z,86.63
2022-10-25T01:00:15.163Z,86.37
2022-10-25T01:01:19.265Z,86.47
2022-10-25T01:02:23.003Z,86.67
2022-10-25T01:03:26.547Z,86.44
2022-10-25T01:04:32.055Z,86.50
2022-10-25T01:05:35.014Z,86.35
2022-10-25T01:06:39.403Z,86.36
2022-10-25T01:07:41.972Z,86.43
2022-10-25T01:08:45.300Z,86.29
2022-10-25T01:09:48.431Z,86.27
2022-10-25T01:10:50.206Z,86.46
2022-10-25T01:11:52.741Z,86.26
2022-10-25T01:12:54.834Z,86.53
2022-10-25T01:13:58.537Z,86.46
2022-10-25T01:15:01.251Z,86.38
2022-10-25T01:16:11.934Z,86.40
2022-10-25T01:17:22.739Z,86.09
2022-10-25T01:18:37.392Z,86.17
2022-10-25T01:20:05.078Z,86.15
2022-10-25T01:21:31.466Z,86.19
2022-10-25T01:22:38.597Z,86.01
2022-10-25T01:24:09.399Z,86.24
2022-10-25T01:25:34.940Z,86.10
2022-10-25T01:27:10.464Z,85.95
2022-10-25T01:28:21.778Z,86.19
2022-10-25T01:29:45.007Z,86.16
2022-10-25T01:31:06.426Z,86.12
2022-10-25T01:32:14.959Z,86.12
2022-10-25T01:33:23.773Z,86.36
2022-10-25T01:34:29.321Z,86.35
2022-10-25T01:35:35.787Z,86.47
2022-10-25T01:36:45.865Z,86.21
2022-10-25T01:38:06.340Z,86.18
2022-10-25T01:39:13.728Z,86.24
2022-10-25T01:40:24.457Z,86.14
2022-10-25T01:41:33.088Z,86.13
2022-10-25T01:42:42.633Z,86.33
2022-10-25T01:43:55.055Z,86.29
2022-10-25T01:45:07.070Z,86.25
2022-10-25T01:46:16.565Z,86.18
2022-10-25T01:47:21.319Z,86.27
2022-10-25T01:48:28.542Z,86.39
2022-10-25T01:49:37.725Z,86.26
2022-10-25T01:50:43.661Z,86.19
2022-10-25T01:51:46.199Z,86.00
2022-10-25T01:52:47.793Z,86.11
2022-10-25T01:53:52.086Z,86.00
2022-10-25T01:54:53.829Z,86.10
2022-10-25T01:56:01.773Z,86.46
2022-10-25T01:57:24.709Z,86.08
2022-10-25T01:58:38.349Z,86.37
2022-10-25T01:59:55.028Z,86.16
2022-10-25T02:01:09.353Z,86.46
2022-10-25T02:02:20.196Z,86.28
2022-10-25T02:03:32.753Z,86.27
2022-10-25T02:04:47.905Z,86.46
2022-10-25T02:06:02.680Z,86.32
2022-10-25T02:07:07.996Z,86.32
2022-10-25T02:08:18.782Z,86.50
2022-10-25T02:09:28.088Z,86.59
2022-10-25T02:10:37.316Z,86.39
2022-10-25T02:11:39.706Z,86.78
2022-10-25T02:12:52.635Z,86.62
2022-10-25T02:14:04.832Z,86.74
2022-10-25T02:15:13.348Z,86.62
2022-10-25T02:16:21.321Z,86.93
2022-10-25T02:17:28.386Z,86.91
2022-10-25T02:18:35.454Z,86.85
2022-10-25T02:19:40.746Z,86.95
2022-10-25T02:20:47.086Z,87.10
2022-10-25T02:21:50.550Z,86.84
2022-10-25T02:22:55.175Z,86.97
2022-10-25T02:24:01.283Z,86.86
2022-10-25T02:25:04.740Z,86.96
2022-10-25T02:26:08.944Z,87.32
2022-10-25T02:27:12.735Z,87.14
2022-10-25T02:28:17.356Z,86.93
2022-10-25T02:29:22.240Z,87.10
2022-10-25T02:30:23.920Z,87.06
2022-10-25T02:31:28.029Z,87.26
2022-10-25T02:32:31.143Z,87.00
2022-10-25T02:33:33.982Z,87.02
2022-10-25T02:34:35.645Z,87.27
2022-10-25T02:35:38.708Z,87.19
2022-10-25T02:36:40.263Z,87.05
2022-10-25T02:37:42.985Z,87.02
2022-10-25T02:38:45.513Z,87.27
2022-10-25T02:39:49.206Z,87.13
2022-10-25T02:40:51.100Z,87.14
2022-10-25T02:41:53.905Z,87.15
2022-10-25T02:42:55.455Z,87.00
2022-10-25T02:43:57.951Z,87.03
2022-10-25T02:44:59.483Z,87.24
2022-10-25T02:46:06.860Z,86.99
2022-10-25T02:47:08.396Z,86.85
2022-10-25T02:48:12.267Z,86.94
2022-10-25T02:49:13.907Z,86.86
2022-10-25T02:50:16.443Z,87.07
2022-10-25T02:51:18.866Z,86.86
2022-10-25T02:52:21.505Z,86.89
2022-10-25T02:53:23.003Z,86.93
2022-10-25T02:54:25.733Z,87.09
2022-10-25T02:55:27.238Z,87.01
2022-10-25T02:56:30.055Z,87.02
2022-10-25T02:57:33.554Z,87.08
2022-10-25T02:58:38.904Z,86.73
2022-10-25T02:59:40.783Z,86.76
2022-10-25T03:00:43.369Z,87.04
2022-10-25T03:01:44.992Z,86.78
2022-10-25T03:02:47.948Z,86.76
2022-10-25T03:03:51.831Z,86.94
2022-10-25T03:04:54.380Z,86.76
2022-10-25T03:05:57.516Z,86.78
2022-10-25T03:06:59.990Z,86.92
2022-10-25T03:08:01.493Z,86.75
2022-10-25T03:09:04.371Z,86.88
2022-10-25T03:10:07.206Z,86.70
2022-10-25T03:11:10.923Z,86.83
2022-10-25T03:12:13.383Z,86.76
2022-10-25T03:13:15.264Z,86.63
2022-10-25T03:14:17.801Z,86.54
2022-10-25T03:15:19.679Z,86.49
2022-10-25T03:16:22.180Z,86.67
2022-10-25T03:17:23.684Z,86.53
2022-10-25T03:18:26.313Z,86.45
2022-10-25T03:19:29.367Z,86.63
2022-10-25T03:20:32.108Z,86.68
2022-10-25T03:21:36.525Z,86.47
2022-10-25T03:22:41.192Z,86.50
2022-10-25T03:23:42.772Z,86.54
2022-10-25T03:24:45.236Z,86.57
2022-10-25T03:25:48.765Z,86.73
2022-10-25T03:26:53.271Z,86.53
2022-10-25T03:27:54.861Z,86.57
2022-10-25T03:28:57.353Z,86.72
2022-10-25T03:30:00.207Z,86.64
2022-10-25T03:31:02.693Z,86.68
2022-10-25T03:32:05.467Z,86.51
2022-10-25T03:33:07.963Z,86.55
2022-10-25T03:34:09.545Z,86.38
2022-10-25T03:35:13.536Z,86.54
2022-10-25T03:36:16.146Z,86.33
2022-10-25T03:37:17.749Z,86.49
2022-10-25T03:38:20.278Z,86.46
2022-10-25T03:39:21.757Z,86.35
2022-10-25T03:40:24.709Z,86.52
2022-10-25T03:41:26.359Z,86.40
2022-10-25T03:42:29.144Z,86.48
2022-10-25T03:43:30.899Z,86.28
2022-10-25T03:44:33.369Z,86.51
2022-10-25T03:45:34.899Z,86.43
2022-10-25T03:46:37.365Z,86.44
2022-10-25T03:47:39.461Z,86.57
2022-10-25T03:48:41.944Z,86.36
2022-10-25T03:49:48.801Z,86.59
2022-10-25T03:50:53.650Z,86.53
2022-10-25T03:51:57.908Z,86.53
2022-10-25T03:53:03.754Z,86.38
2022-10-25T03:54:05.553Z,86.38
2022-10-25T03:55:08.640Z,86.45
2022-10-25T03:56:10.172Z,86.46
2022-10-25T03:57:12.646Z,86.19
2022-10-25T03:58:14.229Z,86.29
2022-10-25T03:59:16.699Z,86.21
2022-10-25T04:00:18.321Z,86.49
2022-10-25T04:01:20.888Z,86.21
2022-10-25T04:02:22.473Z,86.39
2022-10-25T04:03:25.077Z,86.23
2022-10-25T04:04:26.821Z,86.10
2022-10-25T04:05:29.684Z,86.14
2022-10-25T04:06:33.462Z,86.20
2022-10-25T04:07:34.996Z,86.16
2022-10-25T04:08:38.355Z,86.41
2022-10-25T04:09:39.957Z,86.32
2022-10-25T04:10:44.030Z,86.26
2022-10-25T04:11:45.574Z,86.28
2022-10-25T04:12:48.499Z,86.17
2022-10-25T04:13:50.137Z,86.28
2022-10-25T04:14:52.747Z,86.09
2022-10-25T04:15:55.187Z,86.04
2022-10-25T04:16:56.837Z,86.15
2022-10-25T04:17:59.380Z,85.93
2022-10-25T04:19:01.431Z,86.08
2022-10-25T04:20:04.257Z,86.05
2022-10-25T04:21:05.957Z,86.07
2022-10-25T04:22:11.760Z,86.01
2022-10-25T04:23:23.038Z,86.08
2022-10-25T04:24:25.543Z,86.03
2022-10-25T04:25:28.394Z,85.96
2022-10-25T04:26:30.911Z,86.13
2022-10-25T04:27:32.432Z,85.84
2022-10-25T04:28:34.983Z,86.10
2022-10-25T04:29:36.489Z,86.19
2022-10-25T04:30:39.193Z,85.85
2022-10-25T04:31:42.103Z,86.26
2022-10-25T04:32:44.729Z,85.93
2022-10-25T04:33:49.012Z,85.91
2022-10-25T04:34:51.647Z,85.94
2022-10-25T04:35:55.849Z,86.22
2022-10-25T04:36:58.468Z,85.97
2022-10-25T04:38:01.372Z,86.11
2022-10-25T04:39:03.931Z,86.19
2022-10-25T04:40:06.761Z,85.92
2022-10-25T04:41:10.834Z,85.99
2022-10-25T04:42:12.431Z,86.10
2022-10-25T04:43:15.009Z,86.04
2022-10-25T04:44:16.660Z,86.10
2022-10-25T04:45:19.309Z,85.93
2022-10-25T04:46:21.217Z,86.16
2022-10-25T04:47:23.689Z,86.19
2022-10-25T04:48:25.277Z,86.31
2022-10-25T04:49:27.916Z,86.21
2022-10-25T04:50:29.442Z,86.04
2022-10-25T04:51:31.972Z,86.08
2022-10-25T04:52:33.753Z,86.09
2022-10-25T04:53:37.988Z,86.38
2022-10-25T04:54:39.605Z,85.98
2022-10-25T04:55:42.098Z,86.02
2022-10-25T04:56:43.610Z,86.07
2022-10-25T04:57:46.218Z,86.13
2022-10-25T04:58:47.752Z,86.18
2022-10-25T04:59:50.236Z,86.04
2022-10-25T05:00:52.239Z,86.20
2022-10-25T05:01:54.682Z,86.08
2022-10-25T05:02:56.810Z,86.09
2022-10-25T05:03:59.461Z,86.24
2022-10-25T05:05:01.004Z,86.09
2022-10-25T05:06:11.433Z,86.19
2022-10-25T05:07:13.337Z,86.17
2022-10-25T05:08:15.920Z,86.14
2022-10-25T05:09:18.834Z,86.10
2022-10-25T05:10:21.577Z,86.34
2022-10-25T05:11:24.818Z,86.03
2022-10-25T05:12:27.339Z,86.02
2022-10-25T05:13:31.806Z,86.25
2022-10-25T05:14:36.865Z,86.07
2022-10-25T05:15:39.907Z,85.91
2022-10-25T05:16:42.387Z,86.23
2022-10-25T05:17:43.975Z,86.40
2022-10-25T05:18:46.563Z,86.13
2022-10-25T05:19:48.085Z,85.87
2022-10-25T05:20:54.385Z,86.19
2022-10-25T05:21:58.292Z,86.12
2022-10-25T05:23:00.752Z,86.25
2022-10-25T05:24:02.673Z,86.43
2022-10-25T05:25:08.035Z,86.17
2022-10-25T05:26:11.539Z,86.31
2022-10-25T05:27:14.036Z,86.49
2022-10-25T05:28:16.717Z,86.20
2022-10-25T05:29:19.399Z,86.44
2022-10-25T05:30:21.660Z,86.23
2022-10-25T05:31:25.761Z,86.17
2022-10-25T05:32:27.281Z,86.02
2022-10-25T05:33:29.784Z,86.22
2022-10-25T05:34:31.452Z,86.15
2022-10-25T05:35:33.986Z,86.08
2022-10-25T05:36:36.589Z,86.34
2022-10-25T05:37:38.093Z,86.36
2022-10-25T05:38:41.174Z,86.23
2022-10-25T05:39:43.738Z,86.17
2022-10-25T05:40:53.739Z,86.43
2022-10-25T05:41:56.297Z,86.13
2022-10-25T05:42:57.884Z,86.12
2022-10-25T05:44:00.639Z,86.42
2022-10-25T05:45:02.217Z,86.39
2022-10-25T05:46:06.385Z,86.20
2022-10-25T05:47:08.460Z,86.29
2022-10-25T05:48:10.981Z,86.10
2022-10-25T05:49:13.685Z,86.06
2022-10-25T05:50:15.541Z,86.28
2022-10-25T05:51:36.515Z,86.20
2022-10-25T05:52:43.515Z,86.12
2022-10-25T05:53:46.855Z,86.28
2022-10-25T05:54:49.452Z,86.24
2022-10-25T05:55:51.174Z,86.45
2022-10-25T05:56:55.036Z,86.50
2022-10-25T05:57:56.580Z,86.60
2022-10-25T05:58:59.388Z,86.67
2022-10-25T06:00:01.084Z,86.67
2022-10-25T06:01:11.637Z,86.56
2022-10-25T06:02:14.377Z,86.71
2022-10-25T06:03:16.003Z,86.41
2022-10-25T06:04:18.873Z,86.35
2022-10-25T06:05:21.740Z,86.33
2022-10-25T06:06:24.408Z,86.27
2022-10-25T06:07:26.888Z,86.42
2022-10-25T06:08:28.776Z,86.42
2022-10-25T06:09:31.230Z,86.56
2022-10-25T06:10:32.844Z,86.43
2022-10-25T06:11:35.671Z,86.48
2022-10-25T06:12:38.689Z,86.44
2022-10-25T06:13:41.713Z,86.46
2022-10-25T06:14:43.331Z,86.59
2022-10-25T06:15:46.758Z,86.44
2022-10-25T06:16:49.720Z,86.87
2022-10-25T06:17:51.289Z,86.39
2022-10-25T06:18:54.162Z,86.44
2022-10-25T06:19:55.835Z,86.69
2022-10-25T06:21:02.380Z,86.51
2022-10-25T06:22:05.200Z,86.26
2022-10-25T06:23:09.179Z,86.50
2022-10-25T06:24:13.165Z,86.25
2022-10-25T06:25:14.734Z,86.39
2022-10-25T06:26:19.054Z,86.45
2022-10-25T06:27:20.608Z,86.20
2022-10-25T06:28:24.472Z,86.27
2022-10-25T06:29:26.968Z,86.21
2022-10-25T06:30:28.593Z,86.41
2022-10-25T06:31:31.856Z,86.14
2022-10-25T06:32:33.428Z,86.14
2022-10-25T06:33:36.023Z,86.31
2022-10-25T06:34:38.560Z,86.11
2022-10-25T06:35:40.135Z,86.19
2022-10-25T06:36:42.694Z,86.07
2022-10-25T06:37:44.204Z,86.31
2022-10-25T06:38:49.057Z,85.99
2022-10-25T06:39:50.731Z,86.14
2022-10-25T06:40:53.396Z,86.03
2022-10-25T06:41:55.902Z,86.38
2022-10-25T06:42:57.552Z,86.37
2022-10-25T06:44:06.228Z,86.25
2022-10-25T06:45:09.725Z,86.15
2022-10-25T06:46:15.109Z,86.31
2022-10-25T06:47:18.209Z,86.37
2022-10-25T06:48:20.283Z,86.52
2022-10-25T06:49:22.718Z,86.42
2022-10-25T06:50:24.253Z,86.22
2022-10-25T06:51:29.008Z,86.52
2022-10-25T06:52:30.553Z,86.29
2022-10-25T06:53:33.913Z,86.32
2022-10-25T06:54:35.856Z,86.59
2022-10-25T06:55:38.404Z,86.43
2022-10-25T06:56:40.867Z,86.57
2022-10-25T06:57:43.506Z,86.55
2022-10-25T06:58:45.012Z,86.74
2022-10-25T06:59:48.879Z,86.48
2022-10-25T07:00:50.519Z,86.72
2022-10-25T07:01:55.089Z,86.46
2022-10-25T07:02:58.754Z,86.50
2022-10-25T07:04:02.098Z,86.45
2022-10-25T07:05:05.095Z,86.60
2022-10-25T07:06:09.043Z,86.59
2022-10-25T07:07:14.741Z,86.40
2022-10-25T07:08:16.247Z,86.58
2022-10-25T07:09:18.747Z,86.58
2022-10-25T07:10:20.497Z,86.70
2022-10-25T07:11:24.561Z,86.41
2022-10-25T07:12:27.076Z,86.42
2022-10-25T07:13:31.760Z,86.65
2022-10-25T07:14:34.295Z,86.38
2022-10-25T07:15:39.909Z,86.49
2022-10-25T07:16:44.598Z,86.50
2022-10-25T07:17:46.435Z,86.46
2022-10-25T07:18:49.528Z,86.50
2022-10-25T07:19:52.008Z,86.50
2022-10-25T07:20:58.666Z,86.55
2022-10-25T07:22:01.188Z,86.28
2022-10-25T07:23:05.386Z,86.67
2022-10-25T07:24:11.662Z,86.53
2022-10-25T07:25:14.178Z,86.32
2022-10-25T07:26:18.051Z,86.66
2022-10-25T07:27:22.082Z,86.43
2022-10-25T07:28:23.741Z,86.24
2022-10-25T07:29:26.236Z,86.21
2022-10-25T07:30:27.762Z,86.33
2022-10-25T07:31:33.849Z,86.45
2022-10-25T07:32:40.025Z,86.37
2022-10-25T07:33:44.961Z,86.42
2022-10-25T07:34:46.556Z,86.42
2022-10-25T07:36:06.147Z,86.12
2022-10-25T07:37:12.536Z,86.34
2022-10-25T07:38:14.727Z,86.10
2022-10-25T07:39:17.278Z,86.31
2022-10-25T07:40:19.875Z,86.17
2022-10-25T07:41:22.590Z,86.01
2022-10-25T07:42:24.203Z,86.01
2022-10-25T07:43:27.453Z,85.99
2022-10-25T07:44:30.058Z,85.85
2022-10-25T07:45:31.680Z,86.23
2022-10-25T07:46:35.730Z,85.86
2022-10-25T07:47:37.334Z,85.90
2022-10-25T07:48:39.826Z,85.78
2022-10-25T07:49:42.377Z,85.74
2022-10-25T07:50:46.044Z,85.68
2022-10-25T07:51:48.522Z,85.56
2022-10-25T07:52:50.047Z,85.36
2022-10-25T07:53:53.929Z,85.35
2022-10-25T07:54:56.491Z,85.21
2022-10-25T07:55:58.287Z,85.04
2022-10-25T07:57:01.117Z,85.07
2022-10-25T07:58:04.566Z,85.07
2022-10-25T07:59:07.081Z,84.79
2022-10-25T08:00:11.719Z,84.80
2022-10-25T08:01:19.177Z,84.74
2022-10-25T08:02:26.120Z,84.54
2022-10-25T08:03:27.986Z,84.57
2022-10-25T08:04:32.771Z,84.62
2022-10-25T08:05:34.800Z,84.34
2022-10-25T08:06:37.282Z,84.29
2022-10-25T08:07:38.796Z,84.28
2022-10-25T08:08:41.317Z,84.03
2022-10-25T08:09:42.804Z,84.18
2022-10-25T08:10:45.683Z,84.19
2022-10-25T08:11:48.246Z,83.84
2022-10-25T08:12:49.798Z,83.96
2022-10-25T08:13:52.330Z,83.96
2022-10-25T08:14:53.837Z,83.89
2022-10-25T08:15:57.258Z,83.74
2022-10-25T08:16:59.760Z,83.73
2022-10-25T08:18:04.043Z,83.54
2022-10-25T08:19:06.820Z,83.61
2022-10-25T08:20:09.212Z,83.53
2022-10-25T08:21:11.667Z,83.50
2022-10-25T08:22:13.365Z,83.50
2022-10-25T08:23:16.436Z,83.50
2022-10-25T08:25:24.763Z,83.45
2022-10-25T08:26:34.369Z,83.47
2022-10-25T08:27:40.959Z,83.34
2022-10-25T08:28:49.470Z,83.52
2022-10-25T08:29:50.964Z,83.44
2022-10-25T08:30:54.331Z,83.47
2022-10-25T08:31:55.899Z,83.51
2022-10-25T08:32:58.864Z,83.24
2022-10-25T08:34:02.982Z,83.64
2022-10-25T08:35:06.332Z,83.24
2022-10-25T08:36:09.669Z,83.16
2022-10-25T08:37:12.220Z,83.20
2022-10-25T08:38:14.736Z,83.06
2022-10-25T08:39:17.991Z,83.21
2022-10-25T08:40:24.045Z,83.09
2022-10-25T08:41:36.059Z,83.04
2022-10-25T08:42:50.994Z,83.12
2022-10-25T08:44:09.900Z,83.14
2022-10-25T08:45:20.617Z,83.02
2022-10-25T08:46:27.474Z,83.03
2022-10-25T08:47:35.916Z,83.20
2022-10-25T08:48:44.021Z,83.01
2022-10-25T08:49:55.257Z,83.20
2022-10-25T08:51:01.272Z,83.01
2022-10-25T08:52:06.580Z,83.06
2022-10-25T08:53:16.398Z,83.09
2022-10-25T08:54:23.992Z,83.16
2022-10-25T08:55:32.798Z,83.04
2022-10-25T08:56:42.586Z,83.18
2022-10-25T08:57:55.952Z,83.14
2022-10-25T08:59:00.919Z,83.18
2022-10-25T09:00:07.277Z,83.12
2022-10-25T09:01:14.861Z,83.09
2022-10-25T09:02:24.746Z,83.06
2022-10-25T09:03:28.322Z,83.09
2022-10-25T09:04:31.517Z,83.08
2022-10-25T09:05:39.809Z,83.09
2022-10-25T09:06:48.366Z,82.99
2022-10-25T09:08:07.402Z,83.15
2022-10-25T09:09:23.088Z,83.07
2022-10-25T09:10:48.628Z,83.12
2022-10-25T09:12:06.153Z,83.31
2022-10-25T09:13:16.260Z,82.89
2022-10-25T09:14:29.100Z,82.99
2022-10-25T09:15:45.982Z,82.85
2022-10-25T09:16:50.819Z,82.83
2022-10-25T09:17:55.023Z,82.98
2022-10-25T09:18:58.410Z,82.98
2022-10-25T09:20:05.256Z,82.68
2022-10-25T09:21:22.472Z,82.63
2022-10-25T09:22:27.618Z,82.57
2022-10-25T09:23:31.646Z,82.50
2022-10-25T09:24:43.057Z,82.26
2022-10-25T09:25:52.852Z,82.37
2022-10-25T09:27:04.439Z,82.40
2022-10-25T09:28:12.174Z,82.26
2022-10-25T09:29:22.141Z,82.19
2022-10-25T09:30:24.831Z,82.19
2022-10-25T09:31:26.544Z,82.08
2022-10-25T09:32:35.855Z,81.95
2022-10-25T09:33:43.152Z,81.88
2022-10-25T09:34:46.336Z,81.67
2022-10-25T09:35:51.534Z,81.89
2022-10-25T09:37:00.094Z,81.66
2022-10-25T09:38:09.307Z,81.54
2022-10-25T09:39:18.792Z,81.39
2022-10-25T09:40:26.323Z,81.31
2022-10-25T09:41:34.103Z,81.26
2022-10-25T09:42:40.064Z,81.10
2022-10-25T09:43:50.968Z,80.68
2022-10-25T09:44:57.762Z,80.52
2022-10-25T09:46:04.119Z,80.36
2022-10-25T09:47:18.857Z,80.20
2022-10-25T09:48:28.264Z,80.09
2022-10-25T09:49:37.445Z,79.97
2022-10-25T09:50:47.531Z,79.81
2022-10-25T09:51:59.960Z,79.79
2022-10-25T09:53:11.740Z,79.79
2022-10-25T09:54:17.674Z,79.54
2022-10-25T09:55:32.924Z,79.37
2022-10-25T09:56:35.418Z,79.39
2022-10-25T09:57:38.232Z,79.24
2022-10-25T09:58:42.810Z,79.20
2022-10-25T09:59:48.685Z,79.14
2022-10-25T10:00:52.876Z,78.93
2022-10-25T10:01:54.840Z,78.67
2022-10-25T10:02:57.704Z,78.51
2022-10-25T10:04:16.358Z,78.44
2022-10-25T10:05:20.717Z,78.40
2022-10-25T10:06:26.010Z,77.88
2022-10-25T10:07:34.353Z,77.84
2022-10-25T10:08:36.499Z,77.64
2022-10-25T10:09:45.882Z,77.69
2022-10-25T10:10:50.541Z,77.41
2022-10-25T10:11:54.315Z,77.34
2022-10-25T10:13:01.894Z,77.32
2022-10-25T10:14:11.889Z,77.24
2022-10-25T10:15:20.192Z,77.31
2022-10-25T10:16:26.809Z,77.05
2022-10-25T10:17:30.288Z,77.23
2022-10-25T10:18:35.320Z,77.08
2022-10-25T10:19:36.908Z,76.80
2022-10-25T10:20:39.471Z,76.80
2022-10-25T10:21:45.635Z,76.88
2022-10-25T10:22:52.717Z,76.67
2022-10-25T10:24:05.992Z,76.82
2022-10-25T10:25:16.231Z,76.71
2022-10-25T10:26:32.024Z,76.58
2022-10-25T10:27:34.116Z,76.46
2022-10-25T10:28:37.070Z,76.18
2022-10-25T10:29:54.023Z,76.19
2022-10-25T10:30:59.429Z,76.17
2022-10-25T10:32:05.081Z,76.08
2022-10-25T10:33:09.505Z,75.61
2022-10-25T10:34:34.223Z,75.91
2022-10-25T10:35:38.058Z,75.78
2022-10-25T10:36:39.712Z,75.71
2022-10-25T10:37:42.427Z,75.60
2022-10-25T10:38:45.296Z,75.46
2022-10-25T10:39:53.881Z,75.31
2022-10-25T10:41:13.504Z,75.13
2022-10-25T10:42:17.921Z,75.15
2022-10-25T10:43:30.618Z,75.12
2022-10-25T10:44:34.897Z,75.10
2022-10-25T10:45:37.613Z,74.95
2022-10-25T10:46:44.522Z,74.83
2022-10-25T10:47:56.739Z,74.89
2022-10-25T10:48:59.029Z,74.71
2022-10-25T10:50:02.515Z,74.46
2022-10-25T10:51:09.038Z,74.51
2022-10-25T10:52:30.336Z,74.24
2022-10-25T10:53:33.869Z,74.19
2022-10-25T10:54:47.328Z,74.13
2022-10-25T10:55:52.373Z,74.46
2022-10-25T10:57:01.002Z,74.07
2022-10-25T10:58:06.478Z,73.92
2022-10-25T10:59:30.524Z,73.85
2022-10-25T11:00:34.577Z,73.92
2022-10-25T11:01:37.224Z,73.62
2022-10-25T11:02:41.830Z,73.58
2022-10-25T11:03:59.912Z,73.58
2022-10-25T11:05:03.549Z,73.48
2022-10-25T11:06:07.334Z,73.29
2022-10-25T11:07:14.968Z,73.23
2022-10-25T11:08:19.739Z,73.53
2022-10-25T11:09:26.445Z,73.19
2022-10-25T11:10:33.426Z,73.36
2022-10-25T11:11:34.955Z,73.20
2022-10-25T11:12:41.086Z,73.24
2022-10-25T11:13:51.649Z,73.27
2022-10-25T11:14:55.728Z,72.93
2022-10-25T11:16:25.772Z,73.23
2022-10-25T11:17:36.734Z,72.94
2022-10-25T11:18:48.673Z,73.06
2022-10-25T11:20:03.626Z,72.95
2022-10-25T11:21:16.482Z,73.04
2022-10-25T11:22:32.955Z,72.68
2022-10-25T11:23:48.675Z,72.87
2022-10-25T11:25:02.078Z,72.63
2022-10-25T11:26:16.268Z,72.71
2022-10-25T11:27:33.024Z,72.64
2022-10-25T11:28:48.319Z,72.14
2022-10-25T11:30:04.995Z,72.59
2022-10-25T11:31:16.486Z,72.53
2022-10-25T11:33:49.196Z,72.73
2022-10-25T11:35:00.279Z,72.74
2022-10-25T11:36:31.630Z,72.86
2022-10-25T11:37:42.287Z,72.93
2022-10-25T11:38:59.333Z,72.88
2022-10-25T11:40:11.190Z,72.97
2022-10-25T11:41:27.863Z,73.09
2022-10-25T11:42:44.678Z,73.02
2022-10-25T11:44:02.573Z,73.11
2022-10-25T11:45:33.223Z,73.16
2022-10-25T11:46:44.780Z,73.30
2022-10-25T11:47:57.702Z,73.15
2022-10-25T11:49:16.223Z,73.44
2022-10-25T11:50:26.425Z,73.37
2022-10-25T11:51:38.322Z,73.42
2022-10-25T11:53:03.948Z,73.49
2022-10-25T11:54:16.446Z,73.34
2022-10-25T11:55:28.372Z,73.07
2022-10-25T11:56:40.189Z,73.27
2022-10-25T11:57:50.529Z,73.03
2022-10-25T11:59:04.533Z,72.96
2022-10-25T12:00:15.750Z,73.03
2022-10-25T12:01:45.013Z,73.15
2022-10-25T12:03:12.716Z,72.94
2022-10-25T12:04:35.942Z,72.85
2022-10-25T12:05:47.884Z,72.88
2022-10-25T12:06:54.854Z,72.60
2022-10-25T12:08:09.311Z,72.54
2022-10-25T12:09:20.450Z,72.63
2022-10-25T12:10:29.086Z,72.65
2022-10-25T12:11:37.886Z,72.64
2022-10-25T12:12:45.398Z,72.72
2022-10-25T12:13:51.663Z,72.85
2022-10-25T12:15:01.444Z,73.04
2022-10-25T12:16:10.307Z,72.82
2022-10-25T12:17:19.303Z,72.89
2022-10-25T12:18:26.368Z,72.96
2022-10-25T12:19:31.940Z,72.95
2022-10-25T12:20:37.951Z,72.72
2022-10-25T12:21:45.892Z,72.73
2022-10-25T12:22:50.990Z,72.69
2022-10-25T12:23:55.588Z,72.82
2022-10-25T12:25:00.698Z,72.75
2022-10-25T12:26:10.667Z,72.65
2022-10-25T12:27:17.683Z,72.86
2022-10-25T12:28:26.385Z,72.79
2022-10-25T12:29:35.920Z,72.64
2022-10-25T12:30:42.049Z,72.99
2022-10-25T12:31:49.833Z,72.70
2022-10-25T12:32:56.963Z,72.82
2022-10-25T12:34:03.115Z,72.53
2022-10-25T12:35:08.492Z,72.58
2022-10-25T12:36:24.532Z,72.41
2022-10-25T12:37:35.965Z,72.46
2022-10-25T12:38:40.179Z,72.11
2022-10-25T12:39:43.690Z,72.13
2022-10-25T12:40:49.675Z,72.17
2022-10-25T12:42:00.153Z,71.77
2022-10-25T12:43:14.833Z,71.89
2022-10-25T12:44:34.845Z,71.53
2022-10-25T12:46:01.267Z,71.45
2022-10-25T12:47:19.939Z,71.17
2022-10-25T12:48:45.412Z,71.08
2022-10-25T12:50:14.615Z,70.69
2022-10-25T12:51:29.241Z,70.55
2022-10-25T12:52:37.657Z,69.93
2022-10-25T12:54:08.166Z,69.98
2022-10-25T12:55:37.799Z,69.95
2022-10-25T12:56:54.322Z,69.85
2022-10-25T12:58:10.149Z,69.42
2022-10-25T12:59:32.855Z,69.27
2022-10-25T13:00:42.720Z,69.29
2022-10-25T13:02:01.104Z,69.44
2022-10-25T13:03:37.306Z,69.38
2022-10-25T13:04:54.809Z,69.48
2022-10-25T13:06:14.186Z,69.25
2022-10-25T13:07:17.871Z,69.13
2022-10-25T13:08:23.008Z,68.87
2022-10-25T13:09:32.220Z,68.68
2022-10-25T13:10:44.925Z,68.40
2022-10-25T13:11:49.807Z,68.32
2022-10-25T13:13:01.581Z,68.52
2022-10-25T13:14:13.245Z,68.24
2022-10-25T13:15:20.025Z,68.00
2022-10-25T13:16:26.227Z,67.95
2022-10-25T13:17:48.231Z,67.83
2022-10-25T13:19:35.859Z,67.91
2022-10-25T13:20:47.769Z,67.79
2022-10-25T13:22:22.047Z,67.93
2022-10-25T13:24:02.596Z,67.56
2022-10-25T13:25:06.259Z,67.93
2022-10-25T13:26:10.538Z,67.59
2022-10-25T13:27:22.610Z,67.41
2022-10-25T13:28:33.961Z,67.17
2022-10-25T13:29:49.620Z,66.97
2022-10-25T13:31:44.724Z,66.63
2022-10-25T13:33:27.220Z,66.90
2022-10-25T13:34:34.268Z,66.24
2022-10-25T13:36:05.641Z,66.33
2022-10-25T13:37:40.690Z,66.31
2022-10-25T13:38:43.347Z,65.95
2022-10-25T13:39:45.890Z,65.79
2022-10-25T13:41:06.806Z,65.82
2022-10-25T13:42:20.700Z,65.94
2022-10-25T13:43:23.366Z,65.96
2022-10-25T13:44:26.492Z,66.20
2022-10-25T13:45:42.709Z,65.76
2022-10-25T13:46:46.681Z,65.81
2022-10-25T13:47:51.813Z,66.07
2022-10-25T13:48:54.812Z,66.03
2022-10-25T13:49:57.574Z,65.70
2022-10-25T13:51:01.997Z,65.70
2022-10-25T13:52:07.125Z,66.01
2022-10-25T13:53:23.770Z,65.81
2022-10-25T13:54:32.564Z,65.84
2022-10-25T13:55:38.085Z,65.48
2022-10-25T13:56:51.619Z,65.57
2022-10-25T13:57:56.470Z,65.73
2022-10-25T13:58:59.871Z,65.63
2022-10-25T14:00:03.118Z,65.66
2022-10-25T14:01:53.204Z,65.56
2022-10-25T14:03:35.584Z,65.79
2022-10-25T14:04:40.574Z,65.59
2022-10-25T14:06:15.036Z,65.82
2022-10-25T14:07:46.531Z,65.70
2022-10-25T14:08:56.995Z,65.71
2022-10-25T14:10:00.108Z,65.65
2022-10-25T14:11:08.812Z,65.51
2022-10-25T14:12:19.345Z,65.35
2022-10-25T14:13:29.131Z,65.20
2022-10-25T14:14:36.013Z,65.42
2022-10-25T14:15:48.679Z,65.20
2022-10-25T14:17:09.440Z,65.10
2022-10-25T14:18:18.728Z,65.29
2022-10-25T14:19:23.415Z,65.13
2022-10-25T14:20:30.280Z,65.00
2022-10-25T14:21:32.984Z,65.14
2022-10-25T14:22:37.712Z,64.79